Time,TemperatureF,DewpointF,PressureIn,WindDirection,WindDirectionDegrees,WindSpeedMPH,WindSpeedGustMPH,Humidity,HourlyPrecipIn,Conditions,Clouds,dailyrainin,SolarRadiationWatts/m^2,SoftwareType,DateUTC
2013-04-06 00:02:00,44.0,42.0,-100.00,WNW,299,0.0,4.0,93,0.00,,,0.00,0.000000,,2013-04-06 04:02:00,
2013-04-06 00:33:00,44.0,42.0,-100.00,WNW,299,0.0,4.0,93,0.00,,,0.00,0.000000,,2013-04-06 04:33:00,
2013-04-06 00:43:00,44.0,42.0,-100.00,WNW,299,0.0,4.0,93,0.00,,,0.00,0.000000,,2013-04-06 04:43:00,
2013-04-06 00:53:00,44.0,42.0,-100.00,WNW,299,0.0,4.0,93,0.00,,,0.00,0.000000,,2013-04-06 04:53:00,
2013-04-06 01:02:00,43.0,41.0,-100.00,SE,134,2.0,4.0,93,0.00,,,0.00,0.000000,,2013-04-06 05:02:00,
2013-04-06 01:33:00,43.0,41.0,-100.00,SE,134,2.0,4.0,93,0.00,,,0.00,0.000000,,2013-04-06 05:33:00,
2013-04-06 01:43:00,43.0,41.0,-100.00,SE,134,2.0,4.0,93,0.00,,,0.00,0.000000,,2013-04-06 05:43:00,
2013-04-06 01:52:00,43.0,41.0,-100.00,SE,134,2.0,4.0,93,0.00,,,0.00,0.000000,,2013-04-06 05:52:00,
2013-04-06 02:02:00,41.0,40.0,-100.00,ENE,59,1.0,2.0,95,0.00,,,-99.99,0.000000,,2013-04-06 06:02:00,
2013-04-06 02:22:00,41.0,40.0,-100.00,ENE,59,1.0,2.0,95,0.00,,,-99.99,0.000000,,2013-04-06 06:22:00,
2013-04-06 02:33:00,41.0,40.0,-100.00,ENE,59,1.0,2.0,95,0.00,,,-99.99,0.000000,,2013-04-06 06:33:00,
2013-04-06 02:43:00,41.0,40.0,-100.00,ENE,59,1.0,2.0,95,0.00,,,-99.99,0.000000,,2013-04-06 06:43:00,
2013-04-06 02:53:00,41.0,40.0,-100.00,ENE,59,1.0,2.0,95,0.00,,,-99.99,0.000000,,2013-04-06 06:53:00,
2013-04-06 03:02:00,42.0,41.0,-100.00,West,259,1.0,5.0,96,0.00,,,0.00,0.000000,,2013-04-06 07:02:00,
2013-04-06 03:34:00,42.0,41.0,-100.00,West,259,1.0,5.0,96,0.00,,,0.00,0.000000,,2013-04-06 07:34:00,
2013-04-06 03:45:00,42.0,41.0,-100.00,West,259,1.0,5.0,96,0.00,,,0.00,0.000000,,2013-04-06 07:45:00,
2013-04-06 03:53:00,42.0,41.0,-100.00,West,259,1.0,5.0,96,0.00,,,0.00,0.000000,,2013-04-06 07:53:00,
2013-04-06 04:02:00,41.0,40.0,-100.00,NW,308,2.0,3.0,95,0.00,,,0.00,0.000000,,2013-04-06 08:02:00,
2013-04-06 04:32:00,41.0,40.0,-100.00,NW,308,2.0,3.0,95,0.00,,,0.00,0.000000,,2013-04-06 08:32:00,
2013-04-06 04:43:00,41.0,40.0,-100.00,NW,308,2.0,3.0,95,0.00,,,0.00,0.000000,,2013-04-06 08:43:00,
2013-04-06 04:52:00,41.0,40.0,-100.00,NW,308,2.0,3.0,95,0.00,,,0.00,0.000000,,2013-04-06 08:52:00,
2013-04-06 05:02:00,40.0,39.0,-100.00,East,83,0.0,5.0,95,0.00,,,-99.99,0.000000,,2013-04-06 09:02:00,
2013-04-06 05:33:00,40.0,39.0,-100.00,East,83,0.0,5.0,95,0.00,,,-99.99,0.000000,,2013-04-06 09:33:00,
2013-04-06 05:43:00,40.0,39.0,-100.00,East,83,0.0,5.0,95,0.00,,,-99.99,0.000000,,2013-04-06 09:43:00,
2013-04-06 05:53:00,40.0,39.0,-100.00,East,83,0.0,5.0,95,0.00,,,-99.99,0.000000,,2013-04-06 09:53:00,
2013-04-06 06:02:00,39.0,38.0,-100.00,SE,128,1.0,2.0,95,0.00,,,0.00,0.000000,,2013-04-06 10:02:00,
2013-04-06 06:23:00,39.0,38.0,-100.00,SE,128,1.0,2.0,95,0.00,,,0.00,0.000000,,2013-04-06 10:23:00,
2013-04-06 06:33:00,39.0,38.0,-100.00,SE,128,1.0,2.0,95,0.00,,,0.00,0.000000,,2013-04-06 10:33:00,
2013-04-06 06:43:00,39.0,38.0,-100.00,SE,128,1.0,2.0,95,0.00,,,0.00,0.000000,,2013-04-06 10:43:00,
2013-04-06 06:53:00,39.0,38.0,-100.00,SE,128,1.0,2.0,95,0.00,,,0.00,0.000000,,2013-04-06 10:53:00,
2013-04-06 07:02:00,39.0,38.0,-100.00,NW,308,2.0,4.0,96,0.00,,,0.00,0.000000,,2013-04-06 11:02:00,
2013-04-06 07:33:00,39.0,38.0,-100.00,NW,308,2.0,4.0,96,0.00,,,0.00,0.000000,,2013-04-06 11:33:00,
2013-04-06 07:43:00,39.0,38.0,-100.00,NW,308,2.0,4.0,96,0.00,,,0.00,0.000000,,2013-04-06 11:43:00,
2013-04-06 07:53:00,39.0,38.0,-100.00,NW,308,2.0,4.0,96,0.00,,,0.00,0.000000,,2013-04-06 11:53:00,
2013-04-06 08:02:00,41.0,39.0,-100.00,NNW,342,0.0,4.0,94,0.00,,,0.00,39.000000,,2013-04-06 12:02:00,
2013-04-06 08:33:00,41.0,39.0,-100.00,NNW,342,0.0,4.0,94,0.00,,,0.00,39.000000,,2013-04-06 12:33:00,
2013-04-06 08:44:00,41.0,39.0,-100.00,NNW,342,0.0,4.0,94,0.00,,,0.00,39.000000,,2013-04-06 12:44:00,
2013-04-06 08:53:00,41.0,39.0,-100.00,NNW,342,0.0,4.0,94,0.00,,,0.00,39.000000,,2013-04-06 12:53:00,
2013-04-06 09:02:00,56.0,46.0,-100.00,NNE,25,2.0,4.0,69,0.00,,,0.00,241.000000,,2013-04-06 13:02:00,
2013-04-06 09:33:00,56.0,46.0,-100.00,NNE,25,2.0,4.0,69,0.00,,,0.00,241.000000,,2013-04-06 13:33:00,
2013-04-06 09:43:00,56.0,46.0,-100.00,NNE,25,2.0,4.0,69,0.00,,,0.00,241.000000,,2013-04-06 13:43:00,
2013-04-06 09:54:00,56.0,46.0,-100.00,NNE,25,2.0,4.0,69,0.00,,,0.00,241.000000,,2013-04-06 13:54:00,
2013-04-06 10:02:00,60.0,43.0,-100.00,ENE,78,5.0,8.0,53,0.00,,,0.00,478.000000,,2013-04-06 14:02:00,
2013-04-06 10:23:00,60.0,43.0,-100.00,ENE,78,5.0,8.0,53,0.00,,,0.00,478.000000,,2013-04-06 14:23:00,
2013-04-06 10:33:00,60.0,43.0,-100.00,ENE,78,5.0,8.0,53,0.00,,,0.00,478.000000,,2013-04-06 14:33:00,
2013-04-06 10:43:00,60.0,43.0,-100.00,ENE,78,5.0,8.0,53,0.00,,,0.00,478.000000,,2013-04-06 14:43:00,
2013-04-06 10:53:00,60.0,43.0,-100.00,ENE,78,5.0,8.0,53,0.00,,,0.00,478.000000,,2013-04-06 14:53:00,
2013-04-06 11:02:00,65.0,39.0,-100.00,East,92,6.0,10.0,39,0.00,,,0.00,698.000000,,2013-04-06 15:02:00,
2013-04-06 11:33:00,65.0,39.0,-100.00,East,92,6.0,10.0,39,0.00,,,0.00,698.000000,,2013-04-06 15:33:00,
2013-04-06 11:43:00,65.0,39.0,-100.00,East,92,6.0,10.0,39,0.00,,,0.00,698.000000,,2013-04-06 15:43:00,
2013-04-06 11:53:00,65.0,39.0,-100.00,East,92,6.0,10.0,39,0.00,,,0.00,698.000000,,2013-04-06 15:53:00,
2013-04-06 12:02:00,67.0,32.0,-100.00,East,79,8.0,14.0,27,0.00,,,0.00,876.000000,,2013-04-06 16:02:00,
2013-04-06 12:33:00,67.0,32.0,-100.00,East,79,8.0,14.0,27,0.00,,,0.00,876.000000,,2013-04-06 16:33:00,
2013-04-06 12:43:00,67.0,32.0,-100.00,East,79,8.0,14.0,27,0.00,,,0.00,876.000000,,2013-04-06 16:43:00,
2013-04-06 12:53:00,67.0,32.0,-100.00,East,79,8.0,14.0,27,0.00,,,0.00,876.000000,,2013-04-06 16:53:00,
2013-04-06 13:02:00,69.0,32.0,-100.00,ESE,117,7.0,16.0,25,0.00,,,0.00,988.000000,,2013-04-06 17:02:00,
2013-04-06 13:33:00,69.0,32.0,-100.00,ESE,117,7.0,16.0,25,0.00,,,0.00,988.000000,,2013-04-06 17:33:00,
2013-04-06 13:43:00,69.0,32.0,-100.00,ESE,117,7.0,16.0,25,0.00,,,0.00,988.000000,,2013-04-06 17:43:00,
2013-04-06 13:52:00,69.0,32.0,-100.00,ESE,117,7.0,16.0,25,0.00,,,0.00,988.000000,,2013-04-06 17:52:00,
2013-04-06 14:02:00,69.0,34.0,-100.00,South,170,10.0,16.0,27,0.00,,,0.00,1027.000000,,2013-04-06 18:02:00,
2013-04-06 14:24:00,69.0,34.0,-100.00,South,170,10.0,16.0,27,0.00,,,0.00,1027.000000,,2013-04-06 18:24:00,
2013-04-06 14:32:00,69.0,34.0,-100.00,South,170,10.0,16.0,27,0.00,,,0.00,1027.000000,,2013-04-06 18:32:00,
2013-04-06 14:43:00,69.0,34.0,-100.00,South,170,10.0,16.0,27,0.00,,,0.00,1027.000000,,2013-04-06 18:43:00,
2013-04-06 14:52:00,69.0,34.0,-100.00,South,170,10.0,16.0,27,0.00,,,0.00,1027.000000,,2013-04-06 18:52:00,
2013-04-06 15:02:00,71.0,30.0,-100.00,SE,145,6.0,15.0,22,0.00,,,0.00,994.000000,,2013-04-06 19:02:00,
2013-04-06 15:33:00,71.0,30.0,-100.00,SE,145,6.0,15.0,22,0.00,,,0.00,994.000000,,2013-04-06 19:33:00,
2013-04-06 15:42:00,71.0,30.0,-100.00,SE,145,6.0,15.0,22,0.00,,,0.00,994.000000,,2013-04-06 19:42:00,
2013-04-06 15:54:00,71.0,30.0,-100.00,SE,145,6.0,15.0,22,0.00,,,0.00,994.000000,,2013-04-06 19:54:00,
2013-04-06 16:02:00,72.0,32.0,-100.00,SE,145,7.0,15.0,23,0.00,,,0.00,866.000000,,2013-04-06 20:02:00,
2013-04-06 16:32:00,72.0,32.0,-100.00,SE,145,7.0,15.0,23,0.00,,,0.00,866.000000,,2013-04-06 20:32:00,
2013-04-06 16:42:00,72.0,32.0,-100.00,SE,145,7.0,15.0,23,0.00,,,0.00,866.000000,,2013-04-06 20:42:00,
2013-04-06 16:53:00,72.0,32.0,-100.00,SE,145,7.0,15.0,23,0.00,,,0.00,866.000000,,2013-04-06 20:53:00,
2013-04-06 17:02:00,72.0,32.0,-100.00,East,92,4.0,12.0,23,0.00,,,0.00,611.000000,,2013-04-06 21:02:00,
2013-04-06 17:33:00,72.0,32.0,-100.00,East,92,4.0,12.0,23,0.00,,,0.00,611.000000,,2013-04-06 21:33:00,
2013-04-06 17:43:00,72.0,32.0,-100.00,East,92,4.0,12.0,23,0.00,,,0.00,611.000000,,2013-04-06 21:43:00,
2013-04-06 17:53:00,72.0,32.0,-100.00,East,92,4.0,12.0,23,0.00,,,0.00,611.000000,,2013-04-06 21:53:00,
2013-04-06 18:02:00,73.0,35.0,-100.00,NE,50,3.0,9.0,25,0.00,,,0.00,359.000000,,2013-04-06 22:02:00,
2013-04-06 18:23:00,73.0,35.0,-100.00,NE,50,3.0,9.0,25,0.00,,,0.00,359.000000,,2013-04-06 22:23:00,
2013-04-06 18:35:00,73.0,35.0,-100.00,NE,50,3.0,9.0,25,0.00,,,0.00,359.000000,,2013-04-06 22:35:00,
2013-04-06 18:44:00,73.0,35.0,-100.00,NE,50,3.0,9.0,25,0.00,,,0.00,359.000000,,2013-04-06 22:44:00,
2013-04-06 18:55:00,73.0,35.0,-100.00,NE,50,3.0,9.0,25,0.00,,,0.00,359.000000,,2013-04-06 22:55:00,
2013-04-06 19:02:00,70.0,36.0,-100.00,SSE,149,5.0,10.0,29,0.00,,,0.00,242.000000,,2013-04-06 23:02:00,
2013-04-06 19:23:00,70.0,36.0,-100.00,SSE,149,5.0,10.0,29,0.00,,,0.00,242.000000,,2013-04-06 23:23:00,
2013-04-06 19:34:00,70.0,36.0,-100.00,SSE,149,5.0,10.0,29,0.00,,,0.00,242.000000,,2013-04-06 23:34:00,
2013-04-06 19:43:00,70.0,36.0,-100.00,SSE,149,5.0,10.0,29,0.00,,,0.00,242.000000,,2013-04-06 23:43:00,
2013-04-06 19:53:00,70.0,36.0,-100.00,SSE,149,5.0,10.0,29,0.00,,,0.00,242.000000,,2013-04-06 23:53:00,
2013-04-06 20:02:00,61.0,40.0,-100.00,SE,144,1.0,7.0,45,0.00,,,0.00,43.000000,,2013-04-07 00:02:00,
2013-04-06 20:33:00,61.0,40.0,-100.00,SE,144,1.0,7.0,45,0.00,,,0.00,43.000000,,2013-04-07 00:33:00,
2013-04-06 20:44:00,61.0,40.0,-100.00,SE,144,1.0,7.0,45,0.00,,,0.00,43.000000,,2013-04-07 00:44:00,
2013-04-06 20:53:00,61.0,40.0,-100.00,SE,144,1.0,7.0,45,0.00,,,0.00,43.000000,,2013-04-07 00:53:00,
2013-04-06 21:02:00,54.0,40.0,-100.00,East,100,0.0,2.0,58,0.00,,,0.00,0.000000,,2013-04-07 01:02:00,
2013-04-06 21:24:00,54.0,40.0,-100.00,East,100,0.0,2.0,58,0.00,,,0.00,0.000000,,2013-04-07 01:24:00,
2013-04-06 21:33:00,54.0,40.0,-100.00,East,100,0.0,2.0,58,0.00,,,0.00,0.000000,,2013-04-07 01:33:00,
2013-04-06 21:43:00,54.0,40.0,-100.00,East,100,0.0,2.0,58,0.00,,,0.00,0.000000,,2013-04-07 01:43:00,
2013-04-06 21:53:00,54.0,40.0,-100.00,East,100,0.0,2.0,58,0.00,,,0.00,0.000000,,2013-04-07 01:53:00,
2013-04-06 22:02:00,51.0,41.0,-100.00,SE,140,2.0,4.0,69,0.00,,,0.00,0.000000,,2013-04-07 02:02:00,
2013-04-06 22:33:00,51.0,41.0,-100.00,SE,140,2.0,4.0,69,0.00,,,0.00,0.000000,,2013-04-07 02:33:00,
2013-04-06 22:43:00,51.0,41.0,-100.00,SE,140,2.0,4.0,69,0.00,,,0.00,0.000000,,2013-04-07 02:43:00,
2013-04-06 22:52:00,51.0,41.0,-100.00,SE,140,2.0,4.0,69,0.00,,,0.00,0.000000,,2013-04-07 02:52:00,
2013-04-06 23:02:00,54.0,39.0,-100.00,SE,143,4.0,5.0,57,0.00,,,0.00,0.000000,,2013-04-07 03:02:00,
2013-04-06 23:23:00,54.0,39.0,-100.00,SE,143,4.0,5.0,57,0.00,,,0.00,0.000000,,2013-04-07 03:23:00,
2013-04-06 23:35:00,54.0,39.0,-100.00,SE,143,4.0,5.0,57,0.00,,,0.00,0.000000,,2013-04-07 03:35:00,
2013-04-06 23:44:00,54.0,39.0,-100.00,SE,143,4.0,5.0,57,0.00,,,0.00,0.000000,,2013-04-07 03:44:00,
2013-04-06 23:55:00,54.0,39.0,-100.00,SE,143,4.0,5.0,57,0.00,,,0.00,0.000000,,2013-04-07 03:55:00,